createdAt,value
2024-04-06T00:03:50.466Z,99770.58
2024-04-06T00:19:07.950Z,99774.35
2024-04-06T00:34:11.173Z,99777.70
2024-04-06T00:49:22.196Z,99788.20
2024-04-06T01:04:25.978Z,99799.52
2024-04-06T01:19:32.248Z,99811.56
2024-04-06T01:34:37.674Z,99824.40
2024-04-06T01:49:45.559Z,99850.08
2024-04-06T02:04:48.419Z,99867.48
2024-04-06T02:19:51.398Z,99873.30
2024-04-06T02:34:54.544Z,99887.88
2024-04-06T02:50:00.520Z,99903.19
2024-04-06T03:05:04.502Z,99917.67
2024-04-06T03:20:09.698Z,99932.75
2024-04-06T03:35:17.672Z,99941.95
2024-04-06T03:50:24.175Z,99948.44
2024-04-06T04:05:30.429Z,99960.05
2024-04-06T04:20:34.665Z,99965.02
2024-04-06T04:36:01.738Z,99993.29
2024-04-06T04:51:04.961Z,100018.56
2024-04-06T05:06:30.482Z,100037.38
2024-04-06T05:21:33.730Z,100053.49
2024-04-06T05:36:37.086Z,100060.66
2024-04-06T05:51:40.164Z,100075.90
2024-04-06T06:07:06.137Z,100083.69
2024-04-06T06:22:10.939Z,100102.92
2024-04-06T06:52:38.297Z,100126.89
2024-04-06T07:07:44.121Z,100137.34
2024-04-06T07:22:48.313Z,100157.04
2024-04-06T07:37:54.548Z,100159.65
2024-04-06T07:53:00.603Z,100170.30
2024-04-06T08:08:04.785Z,100166.83
2024-04-06T08:23:09.271Z,100171.36
2024-04-06T08:38:13.857Z,100182.22
2024-04-06T08:53:17.257Z,100199.08
2024-04-06T09:08:22.317Z,100203.45
2024-04-06T09:23:27.071Z,100196.62
2024-04-06T09:38:30.202Z,100198.27
2024-04-06T09:53:35.221Z,100207.60
2024-04-06T10:08:52.763Z,100204.70
2024-04-06T10:23:56.295Z,100207.27
2024-04-06T10:39:05.937Z,100220.80
2024-04-06T10:54:09.331Z,100230.75
2024-04-06T11:09:13.521Z,100241.27
2024-04-06T11:24:16.831Z,100246.21
2024-04-06T11:39:20.163Z,100253.58
2024-04-06T11:54:24.258Z,100271.59
2024-04-06T12:09:32.170Z,100278.88
2024-04-06T12:24:55.110Z,100276.51
2024-04-06T12:39:58.535Z,100289.20
2024-04-06T12:55:01.864Z,100299.16
2024-04-06T13:10:08.306Z,100308.45
2024-04-06T13:25:20.353Z,100320.02
2024-04-06T13:40:23.953Z,100319.00
2024-04-06T13:55:27.045Z,100321.76
2024-04-06T14:10:31.248Z,100322.40
2024-04-06T14:25:37.434Z,100335.65
2024-04-06T14:40:44.242Z,100342.25
2024-04-06T14:56:11.372Z,100335.31
2024-04-06T15:11:15.002Z,100343.98
2024-04-06T15:26:18.620Z,100343.89
2024-04-06T15:41:21.860Z,100367.08
2024-04-06T15:56:24.837Z,100377.20
2024-04-06T16:11:28.432Z,100382.52
2024-04-06T16:26:32.737Z,100389.55
2024-04-06T16:41:37.102Z,100404.62
2024-04-06T16:56:40.218Z,100424.88
2024-04-06T17:11:43.537Z,100449.63
2024-04-06T17:26:46.685Z,100470.95
2024-04-06T17:41:50.784Z,100475.59
2024-04-06T17:56:54.541Z,100474.15
2024-04-06T18:11:57.932Z,100474.58
2024-04-06T18:27:01.313Z,100491.92
2024-04-06T18:42:04.400Z,100512.04
2024-04-06T18:57:07.877Z,100529.86
2024-04-06T19:12:11.190Z,100529.77
2024-04-06T19:27:14.665Z,100550.99
2024-04-06T19:42:19.728Z,100562.48
2024-04-06T19:57:23.394Z,100563.20
2024-04-06T20:12:27.629Z,100550.09
2024-04-06T20:27:30.757Z,100565.67
2024-04-06T20:42:35.650Z,100577.38
2024-04-06T20:57:38.864Z,100566.89
2024-04-06T21:12:45.637Z,100570.54
2024-04-06T21:27:48.854Z,100595.66
2024-04-06T21:42:52.411Z,100622.17
2024-04-06T21:57:55.778Z,100621.36
2024-04-06T22:12:58.669Z,100615.77
2024-04-06T22:28:01.818Z,100620.91
2024-04-06T22:43:04.966Z,100635.75
2024-04-06T22:58:08.440Z,100640.00
2024-04-06T23:13:11.357Z,100633.92
2024-04-06T23:28:17.923Z,100636.81
2024-04-06T23:43:21.018Z,100631.38
2024-04-06T23:58:23.926Z,100641.53
